sensor_id;sensor_type;location;lat;lon;timestamp;temperature;humidity
19538;DHT22;9914;51.008;4.300;2022-07-23T00:00:16;18.10;99.90
19538;DHT22;9914;51.008;4.300;2022-07-23T00:02:42;18.00;99.90
19538;DHT22;9914;51.008;4.300;2022-07-23T00:05:09;17.90;99.90
19538;DHT22;9914;51.008;4.300;2022-07-23T00:07:34;17.80;99.90
19538;DHT22;9914;51.008;4.300;2022-07-23T00:10:00;17.80;99.90
19538;DHT22;9914;51.008;4.300;2022-07-23T00:12:26;17.80;99.90
19538;DHT22;9914;51.008;4.300;2022-07-23T00:14:51;17.70;99.90
19538;DHT22;9914;51.008;4.300;2022-07-23T00:17:17;17.40;99.90
19538;DHT22;9914;51.008;4.300;2022-07-23T00:19:43;17.50;99.90
19538;DHT22;9914;51.008;4.300;2022-07-23T00:22:09;17.70;99.90
19538;DHT22;9914;51.008;4.300;2022-07-23T00:24:34;17.70;99.90
19538;DHT22;9914;51.008;4.300;2022-07-23T00:27:00;17.80;99.90
19538;DHT22;9914;51.008;4.300;2022-07-23T00:29:25;17.80;99.90
19538;DHT22;9914;51.008;4.300;2022-07-23T00:31:51;17.80;99.90
19538;DHT22;9914;51.008;4.300;2022-07-23T00:34:17;17.80;99.90
19538;DHT22;9914;51.008;4.300;2022-07-23T00:36:42;17.80;99.90
19538;DHT22;9914;51.008;4.300;2022-07-23T00:39:08;17.80;99.90
19538;DHT22;9914;51.008;4.300;2022-07-23T00:41:34;17.80;99.90
19538;DHT22;9914;51.008;4.300;2022-07-23T00:44:16;17.60;99.90
19538;DHT22;9914;51.008;4.300;2022-07-23T00:46:47;17.60;99.90
19538;DHT22;9914;51.008;4.300;2022-07-23T00:49:13;17.70;99.90
19538;DHT22;9914;51.008;4.300;2022-07-23T00:51:38;17.60;99.90
19538;DHT22;9914;51.008;4.300;2022-07-23T00:54:04;17.60;99.90
19538;DHT22;9914;51.008;4.300;2022-07-23T00:56:30;17.50;99.90
19538;DHT22;9914;51.008;4.300;2022-07-23T00:58:57;17.40;99.90
19538;DHT22;9914;51.008;4.300;2022-07-23T01:01:22;17.40;99.90
19538;DHT22;9914;51.008;4.300;2022-07-23T01:03:48;17.40;99.90
19538;DHT22;9914;51.008;4.300;2022-07-23T01:06:14;17.30;99.90
19538;DHT22;9914;51.008;4.300;2022-07-23T01:08:40;17.20;99.90
19538;DHT22;9914;51.008;4.300;2022-07-23T01:11:06;17.20;99.90
19538;DHT22;9914;51.008;4.300;2022-07-23T01:13:32;17.20;99.90
19538;DHT22;9914;51.008;4.300;2022-07-23T01:15:58;17.20;99.90
19538;DHT22;9914;51.008;4.300;2022-07-23T01:18:23;17.30;99.90
19538;DHT22;9914;51.008;4.300;2022-07-23T01:20:49;17.30;99.90
19538;DHT22;9914;51.008;4.300;2022-07-23T01:23:15;17.30;99.90
19538;DHT22;9914;51.008;4.300;2022-07-23T01:25:53;17.30;99.90
19538;DHT22;9914;51.008;4.300;2022-07-23T01:28:19;17.10;99.90
19538;DHT22;9914;51.008;4.300;2022-07-23T01:30:45;17.00;99.90
19538;DHT22;9914;51.008;4.300;2022-07-23T01:33:11;17.10;99.90
19538;DHT22;9914;51.008;4.300;2022-07-23T01:35:36;17.00;99.90
19538;DHT22;9914;51.008;4.300;2022-07-23T01:38:02;17.10;99.90
19538;DHT22;9914;51.008;4.300;2022-07-23T01:40:27;17.10;99.90
19538;DHT22;9914;51.008;4.300;2022-07-23T01:42:53;17.10;99.90
19538;DHT22;9914;51.008;4.300;2022-07-23T01:45:19;17.00;99.90
19538;DHT22;9914;51.008;4.300;2022-07-23T01:47:44;17.00;99.90
19538;DHT22;9914;51.008;4.300;2022-07-23T01:50:10;17.10;99.90
19538;DHT22;9914;51.008;4.300;2022-07-23T01:52:36;17.10;99.90
19538;DHT22;9914;51.008;4.300;2022-07-23T01:55:01;17.10;99.90
19538;DHT22;9914;51.008;4.300;2022-07-23T01:57:27;17.00;99.90
19538;DHT22;9914;51.008;4.300;2022-07-23T01:59:52;17.00;99.90
19538;DHT22;9914;51.008;4.300;2022-07-23T02:02:18;17.00;99.90
19538;DHT22;9914;51.008;4.300;2022-07-23T02:04:44;17.00;99.90
19538;DHT22;9914;51.008;4.300;2022-07-23T02:07:09;17.00;99.90
19538;DHT22;9914;51.008;4.300;2022-07-23T02:09:35;16.90;99.90
19538;DHT22;9914;51.008;4.300;2022-07-23T02:12:01;16.90;99.90
19538;DHT22;9914;51.008;4.300;2022-07-23T02:14:27;16.80;99.90
19538;DHT22;9914;51.008;4.300;2022-07-23T02:16:52;16.80;99.90
19538;DHT22;9914;51.008;4.300;2022-07-23T02:19:18;16.80;99.90
19538;DHT22;9914;51.008;4.300;2022-07-23T02:21:44;16.90;99.90
19538;DHT22;9914;51.008;4.300;2022-07-23T02:24:09;16.80;99.90
19538;DHT22;9914;51.008;4.300;2022-07-23T02:26:35;16.70;99.90
19538;DHT22;9914;51.008;4.300;2022-07-23T02:29:02;16.70;99.90
19538;DHT22;9914;51.008;4.300;2022-07-23T02:31:29;16.60;99.90
19538;DHT22;9914;51.008;4.300;2022-07-23T02:33:54;16.60;99.90
19538;DHT22;9914;51.008;4.300;2022-07-23T02:36:20;16.60;99.90
19538;DHT22;9914;51.008;4.300;2022-07-23T02:38:46;16.60;99.90
19538;DHT22;9914;51.008;4.300;2022-07-23T02:41:12;16.60;99.90
19538;DHT22;9914;51.008;4.300;2022-07-23T02:43:38;16.50;99.90
19538;DHT22;9914;51.008;4.300;2022-07-23T02:46:04;16.50;99.90
19538;DHT22;9914;51.008;4.300;2022-07-23T02:48:30;16.50;99.90
19538;DHT22;9914;51.008;4.300;2022-07-23T02:50:55;16.40;99.90
19538;DHT22;9914;51.008;4.300;2022-07-23T02:53:22;16.30;99.90
19538;DHT22;9914;51.008;4.300;2022-07-23T02:55:48;16.50;99.90
19538;DHT22;9914;51.008;4.300;2022-07-23T02:58:14;16.40;99.90
19538;DHT22;9914;51.008;4.300;2022-07-23T03:00:40;16.40;99.90
19538;DHT22;9914;51.008;4.300;2022-07-23T03:03:05;16.30;99.90
19538;DHT22;9914;51.008;4.300;2022-07-23T03:05:32;16.20;99.90
19538;DHT22;9914;51.008;4.300;2022-07-23T03:07:57;16.20;99.90
19538;DHT22;9914;51.008;4.300;2022-07-23T03:10:23;16.20;99.90
19538;DHT22;9914;51.008;4.300;2022-07-23T03:12:48;16.30;99.90
19538;DHT22;9914;51.008;4.300;2022-07-23T03:15:14;16.40;99.90
19538;DHT22;9914;51.008;4.300;2022-07-23T03:17:40;16.30;99.90
19538;DHT22;9914;51.008;4.300;2022-07-23T03:20:06;16.20;99.90
19538;DHT22;9914;51.008;4.300;2022-07-23T03:22:32;16.10;99.90
19538;DHT22;9914;51.008;4.300;2022-07-23T03:24:58;16.10;99.90
19538;DHT22;9914;51.008;4.300;2022-07-23T03:27:25;16.30;99.90
19538;DHT22;9914;51.008;4.300;2022-07-23T03:29:53;16.30;99.90
19538;DHT22;9914;51.008;4.300;2022-07-23T03:32:20;16.30;99.90
19538;DHT22;9914;51.008;4.300;2022-07-23T03:34:46;16.20;99.90
19538;DHT22;9914;51.008;4.300;2022-07-23T03:37:11;16.20;99.90
19538;DHT22;9914;51.008;4.300;2022-07-23T03:39:37;16.30;99.90
19538;DHT22;9914;51.008;4.300;2022-07-23T03:42:03;16.20;99.90
19538;DHT22;9914;51.008;4.300;2022-07-23T03:44:28;16.10;99.90
19538;DHT22;9914;51.008;4.300;2022-07-23T03:46:54;16.00;99.90
19538;DHT22;9914;51.008;4.300;2022-07-23T03:49:19;16.00;99.90
19538;DHT22;9914;51.008;4.300;2022-07-23T03:51:45;16.00;99.90
19538;DHT22;9914;51.008;4.300;2022-07-23T03:54:11;16.00;99.90
19538;DHT22;9914;51.008;4.300;2022-07-23T03:56:36;16.00;99.90
19538;DHT22;9914;51.008;4.300;2022-07-23T03:59:02;15.90;99.90
19538;DHT22;9914;51.008;4.300;2022-07-23T04:01:28;15.90;99.90
19538;DHT22;9914;51.008;4.300;2022-07-23T04:03:53;15.90;99.90
19538;DHT22;9914;51.008;4.300;2022-07-23T04:06:19;15.90;99.90
19538;DHT22;9914;51.008;4.300;2022-07-23T04:08:44;16.00;99.90
19538;DHT22;9914;51.008;4.300;2022-07-23T04:11:10;16.10;99.90
19538;DHT22;9914;51.008;4.300;2022-07-23T04:13:36;15.90;99.90
19538;DHT22;9914;51.008;4.300;2022-07-23T04:16:01;15.90;99.90
19538;DHT22;9914;51.008;4.300;2022-07-23T04:18:27;15.80;99.90
19538;DHT22;9914;51.008;4.300;2022-07-23T04:20:53;15.70;99.90
19538;DHT22;9914;51.008;4.300;2022-07-23T04:23:19;15.80;99.90
19538;DHT22;9914;51.008;4.300;2022-07-23T04:25:45;15.80;99.90
19538;DHT22;9914;51.008;4.300;2022-07-23T04:28:10;15.80;99.90
19538;DHT22;9914;51.008;4.300;2022-07-23T04:30:36;15.80;99.90
19538;DHT22;9914;51.008;4.300;2022-07-23T04:33:01;15.80;99.90
19538;DHT22;9914;51.008;4.300;2022-07-23T04:35:31;15.80;99.90
19538;DHT22;9914;51.008;4.300;2022-07-23T04:37:56;15.90;99.90
19538;DHT22;9914;51.008;4.300;2022-07-23T04:40:22;15.90;99.90
19538;DHT22;9914;51.008;4.300;2022-07-23T04:42:47;15.80;99.90
19538;DHT22;9914;51.008;4.300;2022-07-23T04:45:13;15.90;99.90
19538;DHT22;9914;51.008;4.300;2022-07-23T04:47:39;16.00;99.90
19538;DHT22;9914;51.008;4.300;2022-07-23T04:50:04;16.00;99.90
19538;DHT22;9914;51.008;4.300;2022-07-23T04:52:30;16.00;99.90
19538;DHT22;9914;51.008;4.300;2022-07-23T04:54:56;16.10;99.90
19538;DHT22;9914;51.008;4.300;2022-07-23T04:57:21;16.10;99.90
19538;DHT22;9914;51.008;4.300;2022-07-23T04:59:47;16.30;99.90
19538;DHT22;9914;51.008;4.300;2022-07-23T05:02:12;16.40;99.90
19538;DHT22;9914;51.008;4.300;2022-07-23T05:04:38;16.40;99.90
19538;DHT22;9914;51.008;4.300;2022-07-23T05:07:04;16.40;99.90
19538;DHT22;9914;51.008;4.300;2022-07-23T05:09:29;16.40;99.90
19538;DHT22;9914;51.008;4.300;2022-07-23T05:11:55;16.40;99.90
19538;DHT22;9914;51.008;4.300;2022-07-23T05:14:21;16.50;99.90
19538;DHT22;9914;51.008;4.300;2022-07-23T05:16:46;16.70;99.90
19538;DHT22;9914;51.008;4.300;2022-07-23T05:19:12;16.80;99.90
19538;DHT22;9914;51.008;4.300;2022-07-23T05:21:38;16.90;99.90
19538;DHT22;9914;51.008;4.300;2022-07-23T05:24:03;17.10;99.90
19538;DHT22;9914;51.008;4.300;2022-07-23T05:26:29;17.20;99.90
19538;DHT22;9914;51.008;4.300;2022-07-23T05:28:55;17.20;99.90
19538;DHT22;9914;51.008;4.300;2022-07-23T05:31:20;17.30;99.90
19538;DHT22;9914;51.008;4.300;2022-07-23T05:33:46;17.60;99.90
19538;DHT22;9914;51.008;4.300;2022-07-23T05:36:12;17.80;99.90
19538;DHT22;9914;51.008;4.300;2022-07-23T05:38:37;18.20;99.90
19538;DHT22;9914;51.008;4.300;2022-07-23T05:41:03;18.40;99.90
19538;DHT22;9914;51.008;4.300;2022-07-23T05:43:29;18.60;99.90
19538;DHT22;9914;51.008;4.300;2022-07-23T05:45:54;18.50;99.90
19538;DHT22;9914;51.008;4.300;2022-07-23T05:48:20;18.60;99.90
19538;DHT22;9914;51.008;4.300;2022-07-23T05:50:46;18.70;99.90
19538;DHT22;9914;51.008;4.300;2022-07-23T05:53:12;18.80;99.90
19538;DHT22;9914;51.008;4.300;2022-07-23T05:55:38;18.90;99.90
19538;DHT22;9914;51.008;4.300;2022-07-23T05:58:03;19.10;99.90
19538;DHT22;9914;51.008;4.300;2022-07-23T06:00:30;19.10;99.90
19538;DHT22;9914;51.008;4.300;2022-07-23T06:02:55;19.10;99.90
19538;DHT22;9914;51.008;4.300;2022-07-23T06:05:21;19.20;99.90
19538;DHT22;9914;51.008;4.300;2022-07-23T06:07:47;19.30;99.90
19538;DHT22;9914;51.008;4.300;2022-07-23T06:10:12;19.50;99.90
19538;DHT22;9914;51.008;4.300;2022-07-23T06:12:38;19.60;99.90
19538;DHT22;9914;51.008;4.300;2022-07-23T06:15:04;19.80;99.90
19538;DHT22;9914;51.008;4.300;2022-07-23T06:17:30;19.70;99.90
19538;DHT22;9914;51.008;4.300;2022-07-23T06:19:56;19.70;99.90
19538;DHT22;9914;51.008;4.300;2022-07-23T06:22:22;19.70;99.90
19538;DHT22;9914;51.008;4.300;2022-07-23T06:24:48;19.80;99.90
19538;DHT22;9914;51.008;4.300;2022-07-23T06:27:14;19.70;99.90
19538;DHT22;9914;51.008;4.300;2022-07-23T06:29:39;19.70;99.90
19538;DHT22;9914;51.008;4.300;2022-07-23T06:32:06;19.80;99.90
19538;DHT22;9914;51.008;4.300;2022-07-23T06:34:33;19.90;99.90
19538;DHT22;9914;51.008;4.300;2022-07-23T06:37:00;19.90;99.90
19538;DHT22;9914;51.008;4.300;2022-07-23T06:39:26;20.00;99.90
19538;DHT22;9914;51.008;4.300;2022-07-23T06:41:52;20.20;99.90
19538;DHT22;9914;51.008;4.300;2022-07-23T06:44:18;20.30;99.90
19538;DHT22;9914;51.008;4.300;2022-07-23T06:46:43;20.40;99.90
19538;DHT22;9914;51.008;4.300;2022-07-23T06:49:09;20.30;99.90
19538;DHT22;9914;51.008;4.300;2022-07-23T06:51:35;20.40;99.90
19538;DHT22;9914;51.008;4.300;2022-07-23T06:54:01;20.40;99.90
19538;DHT22;9914;51.008;4.300;2022-07-23T06:56:27;20.40;99.90
19538;DHT22;9914;51.008;4.300;2022-07-23T06:58:53;20.60;99.90
19538;DHT22;9914;51.008;4.300;2022-07-23T07:01:19;20.70;99.90
19538;DHT22;9914;51.008;4.300;2022-07-23T07:03:45;20.70;99.90
19538;DHT22;9914;51.008;4.300;2022-07-23T07:06:10;20.60;99.90
19538;DHT22;9914;51.008;4.300;2022-07-23T07:08:36;20.40;99.90
19538;DHT22;9914;51.008;4.300;2022-07-23T07:11:02;20.30;99.90
19538;DHT22;9914;51.008;4.300;2022-07-23T07:13:28;20.00;99.90
19538;DHT22;9914;51.008;4.300;2022-07-23T07:15:53;20.00;99.90
19538;DHT22;9914;51.008;4.300;2022-07-23T07:18:21;20.60;99.90
19538;DHT22;9914;51.008;4.300;2022-07-23T07:20:47;20.90;99.90
19538;DHT22;9914;51.008;4.300;2022-07-23T07:23:12;21.10;99.90
19538;DHT22;9914;51.008;4.300;2022-07-23T07:25:38;21.20;99.90
19538;DHT22;9914;51.008;4.300;2022-07-23T07:28:04;21.40;99.90
19538;DHT22;9914;51.008;4.300;2022-07-23T07:30:30;21.40;99.90
19538;DHT22;9914;51.008;4.300;2022-07-23T07:32:55;21.60;99.90
19538;DHT22;9914;51.008;4.300;2022-07-23T07:35:21;21.80;99.90
19538;DHT22;9914;51.008;4.300;2022-07-23T07:37:47;21.90;99.90
19538;DHT22;9914;51.008;4.300;2022-07-23T07:40:12;22.10;99.90
19538;DHT22;9914;51.008;4.300;2022-07-23T07:42:49;22.10;99.90
19538;DHT22;9914;51.008;4.300;2022-07-23T07:45:15;22.20;99.90
19538;DHT22;9914;51.008;4.300;2022-07-23T07:47:41;22.40;99.90
19538;DHT22;9914;51.008;4.300;2022-07-23T07:50:07;22.40;99.90
19538;DHT22;9914;51.008;4.300;2022-07-23T07:52:34;22.50;99.90
19538;DHT22;9914;51.008;4.300;2022-07-23T07:55:03;22.70;99.90
19538;DHT22;9914;51.008;4.300;2022-07-23T07:57:29;22.90;99.90
19538;DHT22;9914;51.008;4.300;2022-07-23T07:59:55;22.80;99.90
19538;DHT22;9914;51.008;4.300;2022-07-23T08:02:20;22.60;99.90
19538;DHT22;9914;51.008;4.300;2022-07-23T08:04:46;22.50;99.90
19538;DHT22;9914;51.008;4.300;2022-07-23T08:07:12;22.40;99.90
19538;DHT22;9914;51.008;4.300;2022-07-23T08:09:38;22.40;99.90
19538;DHT22;9914;51.008;4.300;2022-07-23T08:12:04;22.70;99.90
19538;DHT22;9914;51.008;4.300;2022-07-23T08:14:30;22.50;99.90
19538;DHT22;9914;51.008;4.300;2022-07-23T08:16:55;22.60;99.90
19538;DHT22;9914;51.008;4.300;2022-07-23T08:19:21;22.90;99.90
19538;DHT22;9914;51.008;4.300;2022-07-23T08:21:47;23.00;99.90
19538;DHT22;9914;51.008;4.300;2022-07-23T08:24:12;23.10;99.90
19538;DHT22;9914;51.008;4.300;2022-07-23T08:26:38;23.30;99.90
19538;DHT22;9914;51.008;4.300;2022-07-23T08:29:03;23.30;99.90
19538;DHT22;9914;51.008;4.300;2022-07-23T08:31:29;23.50;99.90
19538;DHT22;9914;51.008;4.300;2022-07-23T08:33:55;23.60;99.90
19538;DHT22;9914;51.008;4.300;2022-07-23T08:36:21;23.90;99.90
19538;DHT22;9914;51.008;4.300;2022-07-23T08:38:47;23.70;99.90
19538;DHT22;9914;51.008;4.300;2022-07-23T08:41:13;23.70;99.90
19538;DHT22;9914;51.008;4.300;2022-07-23T08:43:40;23.90;99.90
19538;DHT22;9914;51.008;4.300;2022-07-23T08:46:06;23.10;99.90
19538;DHT22;9914;51.008;4.300;2022-07-23T08:48:35;22.70;99.90
19538;DHT22;9914;51.008;4.300;2022-07-23T08:51:05;22.70;99.90
19538;DHT22;9914;51.008;4.300;2022-07-23T08:53:32;23.10;99.90
19538;DHT22;9914;51.008;4.300;2022-07-23T08:56:01;23.40;99.90
19538;DHT22;9914;51.008;4.300;2022-07-23T08:58:27;23.50;99.90
19538;DHT22;9914;51.008;4.300;2022-07-23T09:00:54;23.90;99.90
19538;DHT22;9914;51.008;4.300;2022-07-23T09:03:32;23.60;99.90
19538;DHT22;9914;51.008;4.300;2022-07-23T09:05:59;23.70;99.90
19538;DHT22;9914;51.008;4.300;2022-07-23T09:11:12;23.70;99.90
19538;DHT22;9914;51.008;4.300;2022-07-23T09:16:24;24.10;99.90
19538;DHT22;9914;51.008;4.300;2022-07-23T09:18:55;24.20;99.90
19538;DHT22;9914;51.008;4.300;2022-07-23T09:21:22;24.10;99.90
19538;DHT22;9914;51.008;4.300;2022-07-23T09:26:44;25.20;99.90
19538;DHT22;9914;51.008;4.300;2022-07-23T09:29:21;25.40;99.90
19538;DHT22;9914;51.008;4.300;2022-07-23T09:31:57;25.70;99.90
19538;DHT22;9914;51.008;4.300;2022-07-23T09:34:28;25.90;99.90
19538;DHT22;9914;51.008;4.300;2022-07-23T09:37:08;25.60;99.90
19538;DHT22;9914;51.008;4.300;2022-07-23T09:39:34;25.20;99.90
19538;DHT22;9914;51.008;4.300;2022-07-23T09:42:18;24.30;99.90
19538;DHT22;9914;51.008;4.300;2022-07-23T09:44:50;24.90;99.90
19538;DHT22;9914;51.008;4.300;2022-07-23T09:47:17;25.40;99.90
19538;DHT22;9914;51.008;4.300;2022-07-23T09:52:42;25.60;99.90
19538;DHT22;9914;51.008;4.300;2022-07-23T09:55:08;25.60;99.90
19538;DHT22;9914;51.008;4.300;2022-07-23T09:57:34;25.90;99.90
19538;DHT22;9914;51.008;4.300;2022-07-23T10:00:07;25.20;99.90
19538;DHT22;9914;51.008;4.300;2022-07-23T10:02:35;24.50;99.90
19538;DHT22;9914;51.008;4.300;2022-07-23T10:05:04;25.20;99.90
19538;DHT22;9914;51.008;4.300;2022-07-23T10:07:33;25.70;99.90
19538;DHT22;9914;51.008;4.300;2022-07-23T10:10:00;26.00;99.90
19538;DHT22;9914;51.008;4.300;2022-07-23T10:12:26;26.10;99.90
19538;DHT22;9914;51.008;4.300;2022-07-23T10:15:03;26.10;99.90
19538;DHT22;9914;51.008;4.300;2022-07-23T10:17:31;26.60;99.90
19538;DHT22;9914;51.008;4.300;2022-07-23T10:19:56;26.90;99.90
19538;DHT22;9914;51.008;4.300;2022-07-23T10:22:29;27.20;99.90
19538;DHT22;9914;51.008;4.300;2022-07-23T10:30:41;26.80;99.90
19538;DHT22;9914;51.008;4.300;2022-07-23T10:38:25;25.40;99.90
19538;DHT22;9914;51.008;4.300;2022-07-23T10:41:03;25.30;99.90
19538;DHT22;9914;51.008;4.300;2022-07-23T10:43:30;25.80;99.90
19538;DHT22;9914;51.008;4.300;2022-07-23T10:46:25;26.40;99.90
19538;DHT22;9914;51.008;4.300;2022-07-23T10:49:28;26.10;99.90
19538;DHT22;9914;51.008;4.300;2022-07-23T10:54:47;26.40;99.90
19538;DHT22;9914;51.008;4.300;2022-07-23T10:57:15;26.80;99.90
19538;DHT22;9914;51.008;4.300;2022-07-23T11:02:35;27.10;99.90
19538;DHT22;9914;51.008;4.300;2022-07-23T11:05:20;27.50;99.90
19538;DHT22;9914;51.008;4.300;2022-07-23T11:23:59;28.00;99.90
19538;DHT22;9914;51.008;4.300;2022-07-23T11:32:06;28.20;99.90
19538;DHT22;9914;51.008;4.300;2022-07-23T11:37:06;28.30;99.90
19538;DHT22;9914;51.008;4.300;2022-07-23T11:39:32;28.30;99.90
19538;DHT22;9914;51.008;4.300;2022-07-23T11:41:59;28.60;99.90
19538;DHT22;9914;51.008;4.300;2022-07-23T11:44:30;28.70;99.10
19538;DHT22;9914;51.008;4.300;2022-07-23T11:46:57;28.80;99.90
19538;DHT22;9914;51.008;4.300;2022-07-23T11:49:23;28.70;99.90
19538;DHT22;9914;51.008;4.300;2022-07-23T11:52:13;28.60;99.20
19538;DHT22;9914;51.008;4.300;2022-07-23T11:54:55;28.50;99.70
19538;DHT22;9914;51.008;4.300;2022-07-23T11:57:27;27.90;99.90
19538;DHT22;9914;51.008;4.300;2022-07-23T11:59:56;28.10;99.90
19538;DHT22;9914;51.008;4.300;2022-07-23T12:02:22;28.40;99.00
19538;DHT22;9914;51.008;4.300;2022-07-23T12:04:50;28.50;98.60
19538;DHT22;9914;51.008;4.300;2022-07-23T12:07:33;28.50;98.50
19538;DHT22;9914;51.008;4.300;2022-07-23T12:10:08;28.50;98.70
19538;DHT22;9914;51.008;4.300;2022-07-23T12:15:15;28.30;98.90
19538;DHT22;9914;51.008;4.300;2022-07-23T12:17:43;27.50;99.60
19538;DHT22;9914;51.008;4.300;2022-07-23T12:20:13;26.90;99.90
19538;DHT22;9914;51.008;4.300;2022-07-23T12:22:42;27.30;99.90
19538;DHT22;9914;51.008;4.300;2022-07-23T12:25:10;27.60;99.90
19538;DHT22;9914;51.008;4.300;2022-07-23T12:27:36;27.10;99.90
19538;DHT22;9914;51.008;4.300;2022-07-23T12:33:11;28.00;99.90
19538;DHT22;9914;51.008;4.300;2022-07-23T12:35:43;28.30;99.60
19538;DHT22;9914;51.008;4.300;2022-07-23T12:38:14;28.50;99.70
19538;DHT22;9914;51.008;4.300;2022-07-23T12:40:58;28.60;99.60
19538;DHT22;9914;51.008;4.300;2022-07-23T12:51:22;29.10;99.50
19538;DHT22;9914;51.008;4.300;2022-07-23T12:53:55;29.20;99.30
19538;DHT22;9914;51.008;4.300;2022-07-23T12:56:29;29.50;99.70
19538;DHT22;9914;51.008;4.300;2022-07-23T12:59:09;29.90;99.30
19538;DHT22;9914;51.008;4.300;2022-07-23T13:01:40;30.10;99.60
19538;DHT22;9914;51.008;4.300;2022-07-23T13:04:17;30.00;98.80
19538;DHT22;9914;51.008;4.300;2022-07-23T13:06:51;30.10;98.30
19538;DHT22;9914;51.008;4.300;2022-07-23T13:09:20;29.30;98.40
19538;DHT22;9914;51.008;4.300;2022-07-23T13:11:47;28.10;99.90
19538;DHT22;9914;51.008;4.300;2022-07-23T13:14:14;27.40;99.90
19538;DHT22;9914;51.008;4.300;2022-07-23T13:16:40;27.80;99.90
19538;DHT22;9914;51.008;4.300;2022-07-23T13:19:07;28.60;99.90
19538;DHT22;9914;51.008;4.300;2022-07-23T13:21:32;29.00;99.50
19538;DHT22;9914;51.008;4.300;2022-07-23T13:23:59;29.20;99.70
19538;DHT22;9914;51.008;4.300;2022-07-23T13:26:26;29.20;99.40
19538;DHT22;9914;51.008;4.300;2022-07-23T13:28:52;29.40;99.00
19538;DHT22;9914;51.008;4.300;2022-07-23T13:31:17;29.60;99.10
19538;DHT22;9914;51.008;4.300;2022-07-23T13:33:43;29.60;99.40
19538;DHT22;9914;51.008;4.300;2022-07-23T13:36:09;29.50;98.60
19538;DHT22;9914;51.008;4.300;2022-07-23T13:38:34;29.60;98.40
19538;DHT22;9914;51.008;4.300;2022-07-23T13:41:00;29.30;99.10
19538;DHT22;9914;51.008;4.300;2022-07-23T13:43:26;29.20;99.60
19538;DHT22;9914;51.008;4.300;2022-07-23T13:45:52;29.30;99.00
19538;DHT22;9914;51.008;4.300;2022-07-23T13:48:19;29.30;99.90
19538;DHT22;9914;51.008;4.300;2022-07-23T13:50:45;29.80;99.90
19538;DHT22;9914;51.008;4.300;2022-07-23T13:53:29;30.00;98.80
19538;DHT22;9914;51.008;4.300;2022-07-23T13:55:55;29.80;99.30
19538;DHT22;9914;51.008;4.300;2022-07-23T13:58:22;29.90;99.00
19538;DHT22;9914;51.008;4.300;2022-07-23T14:00:51;29.90;99.00
19538;DHT22;9914;51.008;4.300;2022-07-23T14:03:18;30.00;98.70
19538;DHT22;9914;51.008;4.300;2022-07-23T14:05:44;29.40;99.90
19538;DHT22;9914;51.008;4.300;2022-07-23T14:08:10;29.70;99.50
19538;DHT22;9914;51.008;4.300;2022-07-23T14:10:36;29.70;99.20
19538;DHT22;9914;51.008;4.300;2022-07-23T14:13:02;29.90;99.40
19538;DHT22;9914;51.008;4.300;2022-07-23T14:15:29;30.00;98.90
19538;DHT22;9914;51.008;4.300;2022-07-23T14:17:57;30.10;99.60
19538;DHT22;9914;51.008;4.300;2022-07-23T14:20:23;30.10;98.70
19538;DHT22;9914;51.008;4.300;2022-07-23T14:22:49;29.70;98.70
19538;DHT22;9914;51.008;4.300;2022-07-23T14:25:16;29.00;99.70
19538;DHT22;9914;51.008;4.300;2022-07-23T14:27:42;29.40;99.60
19538;DHT22;9914;51.008;4.300;2022-07-23T14:30:09;29.00;99.50
19538;DHT22;9914;51.008;4.300;2022-07-23T14:32:35;28.60;99.90
19538;DHT22;9914;51.008;4.300;2022-07-23T14:35:01;28.40;99.90
19538;DHT22;9914;51.008;4.300;2022-07-23T14:37:27;28.90;99.90
19538;DHT22;9914;51.008;4.300;2022-07-23T14:39:53;29.70;99.70
19538;DHT22;9914;51.008;4.300;2022-07-23T14:42:19;29.80;99.80
19538;DHT22;9914;51.008;4.300;2022-07-23T14:44:44;30.00;98.80
19538;DHT22;9914;51.008;4.300;2022-07-23T14:47:10;30.30;98.50
19538;DHT22;9914;51.008;4.300;2022-07-23T14:49:36;30.60;98.20
19538;DHT22;9914;51.008;4.300;2022-07-23T14:52:03;30.60;97.90
19538;DHT22;9914;51.008;4.300;2022-07-23T14:54:30;30.60;98.00
19538;DHT22;9914;51.008;4.300;2022-07-23T14:56:57;30.90;97.60
19538;DHT22;9914;51.008;4.300;2022-07-23T14:59:23;31.10;97.50
19538;DHT22;9914;51.008;4.300;2022-07-23T15:01:49;31.20;98.00
19538;DHT22;9914;51.008;4.300;2022-07-23T15:04:16;31.00;97.50
19538;DHT22;9914;51.008;4.300;2022-07-23T15:06:42;31.20;97.00
19538;DHT22;9914;51.008;4.300;2022-07-23T15:09:07;31.40;96.70
19538;DHT22;9914;51.008;4.300;2022-07-23T15:11:33;32.70;95.90
19538;DHT22;9914;51.008;4.300;2022-07-23T15:14:06;34.00;94.50
19538;DHT22;9914;51.008;4.300;2022-07-23T15:16:32;35.40;93.80
19538;DHT22;9914;51.008;4.300;2022-07-23T15:18:58;35.90;92.20
19538;DHT22;9914;51.008;4.300;2022-07-23T15:21:23;36.00;91.50
19538;DHT22;9914;51.008;4.300;2022-07-23T15:23:49;37.10;91.00
19538;DHT22;9914;51.008;4.300;2022-07-23T15:26:15;37.60;90.10
19538;DHT22;9914;51.008;4.300;2022-07-23T15:28:42;37.60;88.90
19538;DHT22;9914;51.008;4.300;2022-07-23T15:31:08;37.30;88.00
19538;DHT22;9914;51.008;4.300;2022-07-23T15:33:34;36.70;90.00
19538;DHT22;9914;51.008;4.300;2022-07-23T15:36:00;36.80;88.70
19538;DHT22;9914;51.008;4.300;2022-07-23T15:38:27;37.40;88.30
19538;DHT22;9914;51.008;4.300;2022-07-23T15:40:56;38.50;86.40
19538;DHT22;9914;51.008;4.300;2022-07-23T15:43:23;38.70;84.50
19538;DHT22;9914;51.008;4.300;2022-07-23T15:45:50;38.70;82.90
19538;DHT22;9914;51.008;4.300;2022-07-23T15:48:15;38.90;82.60
19538;DHT22;9914;51.008;4.300;2022-07-23T15:50:41;39.10;82.60
19538;DHT22;9914;51.008;4.300;2022-07-23T15:53:07;38.80;82.00
19538;DHT22;9914;51.008;4.300;2022-07-23T15:55:33;38.30;82.80
19538;DHT22;9914;51.008;4.300;2022-07-23T15:57:58;37.50;83.00
19538;DHT22;9914;51.008;4.300;2022-07-23T16:00:24;37.80;84.40
19538;DHT22;9914;51.008;4.300;2022-07-23T16:02:50;38.30;83.20
19538;DHT22;9914;51.008;4.300;2022-07-23T16:05:15;39.00;81.40
19538;DHT22;9914;51.008;4.300;2022-07-23T16:07:41;39.40;80.60
19538;DHT22;9914;51.008;4.300;2022-07-23T16:10:07;40.10;79.50
19538;DHT22;9914;51.008;4.300;2022-07-23T16:12:35;39.90;78.60
19538;DHT22;9914;51.008;4.300;2022-07-23T16:15:01;39.50;78.90
19538;DHT22;9914;51.008;4.300;2022-07-23T16:17:28;39.30;79.30
19538;DHT22;9914;51.008;4.300;2022-07-23T16:19:54;38.50;79.80
19538;DHT22;9914;51.008;4.300;2022-07-23T16:22:19;38.80;81.10
19538;DHT22;9914;51.008;4.300;2022-07-23T16:24:45;39.30;79.30
19538;DHT22;9914;51.008;4.300;2022-07-23T16:27:11;38.60;79.60
19538;DHT22;9914;51.008;4.300;2022-07-23T16:29:36;38.60;79.60
19538;DHT22;9914;51.008;4.300;2022-07-23T16:32:03;37.70;82.00
19538;DHT22;9914;51.008;4.300;2022-07-23T16:34:28;38.30;80.70
19538;DHT22;9914;51.008;4.300;2022-07-23T16:36:54;38.80;79.90
19538;DHT22;9914;51.008;4.300;2022-07-23T16:39:19;39.20;78.20
19538;DHT22;9914;51.008;4.300;2022-07-23T16:41:45;38.50;78.40
19538;DHT22;9914;51.008;4.300;2022-07-23T16:44:11;38.30;79.00
19538;DHT22;9914;51.008;4.300;2022-07-23T16:46:37;37.20;81.40
19538;DHT22;9914;51.008;4.300;2022-07-23T16:49:02;35.90;83.70